createdAt,value
2016-12-02T00:00:39.674Z,0
2016-12-02T00:01:39.747Z,0
2016-12-02T00:02:39.735Z,0
2016-12-02T00:03:40.067Z,0
2016-12-02T00:04:39.793Z,0
2016-12-02T00:05:40.118Z,0
2016-12-02T00:06:39.851Z,0
2016-12-02T00:07:40.480Z,0
2016-12-02T00:08:39.898Z,0
2016-12-02T00:09:39.926Z,0
2016-12-02T00:10:39.965Z,0
2016-12-02T00:11:39.676Z,0
2016-12-02T00:12:39.704Z,0
2016-12-02T00:13:40.630Z,0
2016-12-02T00:14:39.757Z,0
2016-12-02T00:15:40.095Z,0
2016-12-02T00:16:40.134Z,0
2016-12-02T00:17:40.154Z,0
2016-12-02T00:18:40.781Z,0
2016-12-02T00:19:40.195Z,0
2016-12-02T00:20:39.939Z,0
2016-12-02T00:21:40.263Z,0
2016-12-02T00:22:40.596Z,0
2016-12-02T00:23:40.321Z,0
2016-12-02T00:24:40.371Z,0
2016-12-02T00:25:40.378Z,0
2016-12-02T00:26:40.385Z,0
2016-12-02T00:27:40.128Z,0
2016-12-02T00:28:40.449Z,0
2016-12-02T00:29:40.183Z,0
2016-12-02T00:30:40.511Z,0
2016-12-02T00:31:40.537Z,0
2016-12-02T00:32:40.568Z,0
2016-12-02T00:33:40.591Z,0
2016-12-02T00:34:41.218Z,0
2016-12-02T00:35:40.638Z,0
2016-12-02T00:36:40.368Z,0
2016-12-02T00:37:40.700Z,0
2016-12-02T00:38:40.734Z,0
2016-12-02T00:39:41.078Z,0
2016-12-02T00:40:40.807Z,0
2016-12-02T00:41:40.799Z,0
2016-12-02T00:42:41.127Z,0
2016-12-02T00:43:40.900Z,0
2016-12-02T00:44:41.196Z,0
2016-12-02T00:45:40.615Z,0
2016-12-02T00:46:41.271Z,0
2016-12-02T00:47:40.983Z,0
2016-12-02T00:48:40.996Z,0
2016-12-02T00:49:41.333Z,0
2016-12-02T00:50:40.743Z,0
2016-12-02T00:51:41.390Z,0
2016-12-02T00:52:41.107Z,0
2016-12-02T00:53:41.444Z,0
2016-12-02T00:54:41.164Z,0
2016-12-02T00:55:41.193Z,0
2016-12-02T00:56:41.522Z,0
2016-12-02T00:57:41.246Z,0
2016-12-02T00:58:41.579Z,0
2016-12-02T00:59:41.607Z,0
2016-12-02T01:00:41.324Z,0
2016-12-02T01:01:41.658Z,0
2016-12-02T01:02:41.078Z,0
2016-12-02T01:03:41.406Z,0
2016-12-02T01:04:41.123Z,0
2016-12-02T01:05:41.451Z,0
2016-12-02T01:06:41.792Z,0
2016-12-02T01:07:41.846Z,0
2016-12-02T01:08:41.836Z,0
2016-12-02T01:09:41.867Z,0
2016-12-02T01:10:41.908Z,0
2016-12-02T01:11:41.623Z,0
2016-12-02T01:12:41.953Z,0
2016-12-02T01:13:41.698Z,0
2016-12-02T01:14:41.702Z,0
2016-12-02T01:15:41.431Z,0
2016-12-02T01:16:42.064Z,0
2016-12-02T01:17:41.789Z,0
2016-12-02T01:18:41.809Z,0
2016-12-02T01:19:41.550Z,0
2016-12-02T01:20:42.168Z,0
2016-12-02T01:21:42.499Z,0
2016-12-02T01:22:42.232Z,0
2016-12-02T01:23:41.949Z,0
2016-12-02T01:24:42.281Z,0
2016-12-02T01:25:41.994Z,0
2016-12-02T01:26:42.332Z,0
2016-12-02T01:27:42.356Z,0
2016-12-02T01:28:42.092Z,0
2016-12-02T01:29:42.722Z,0
2016-12-02T01:30:42.139Z,0
2016-12-02T01:31:42.775Z,0
2016-12-02T01:32:42.499Z,0
2016-12-02T01:33:41.920Z,0
2016-12-02T01:34:42.257Z,0
2016-12-02T01:35:41.969Z,0
2016-12-02T01:36:42.323Z,0
2016-12-02T01:37:42.359Z,0
2016-12-02T01:38:42.350Z,0
2016-12-02T01:39:42.681Z,0
2016-12-02T01:40:42.418Z,0
2016-12-02T01:41:42.741Z,0
2016-12-02T01:42:42.458Z,0
2016-12-02T01:43:42.483Z,0
2016-12-02T01:44:42.821Z,0
2016-12-02T01:45:42.854Z,0
2016-12-02T01:46:42.881Z,0
2016-12-02T01:47:42.914Z,0
2016-12-02T01:48:42.621Z,0
2016-12-02T01:49:42.659Z,0
2016-12-02T01:50:42.374Z,0
2016-12-02T01:51:42.718Z,0
2016-12-02T01:52:43.040Z,0
2016-12-02T01:53:43.375Z,0
2016-12-02T01:54:43.096Z,0
2016-12-02T01:55:43.118Z,0
2016-12-02T01:56:42.536Z,0
2016-12-02T01:57:43.173Z,0
2016-12-02T01:58:43.198Z,0
2016-12-02T01:59:43.243Z,0
2016-12-02T02:00:43.267Z,0
2016-12-02T02:01:42.984Z,0
2016-12-02T02:02:43.313Z,0
2016-12-02T02:03:43.321Z,0
2016-12-02T02:04:42.758Z,0
2016-12-02T02:05:43.086Z,0
2016-12-02T02:06:43.111Z,0
2016-12-02T02:07:43.140Z,0
2016-12-02T02:08:43.774Z,0
2016-12-02T02:09:43.497Z,0
2016-12-02T02:10:43.822Z,0
2016-12-02T02:11:43.246Z,0
2016-12-02T02:12:43.267Z,0
2016-12-02T02:13:44.251Z,0
2016-12-02T02:14:43.018Z,0
2016-12-02T02:15:43.666Z,0
2016-12-02T02:16:43.374Z,0
2016-12-02T02:17:43.403Z,0
2016-12-02T02:18:43.747Z,0
2016-12-02T02:19:43.456Z,0
2016-12-02T02:20:43.782Z,0
2016-12-02T02:21:43.511Z,0
2016-12-02T02:22:43.539Z,0
2016-12-02T02:23:43.260Z,0
2016-12-02T02:24:43.892Z,0
2016-12-02T02:25:43.927Z,0
2016-12-02T02:26:43.959Z,0
2016-12-02T02:27:43.982Z,0
2016-12-02T02:28:44.011Z,0
2016-12-02T02:29:44.039Z,0
2016-12-02T02:30:43.756Z,0
2016-12-02T02:31:43.785Z,0
2016-12-02T02:32:43.513Z,0
2016-12-02T02:33:44.441Z,0
2016-12-02T02:34:44.168Z,0
2016-12-02T02:35:43.899Z,0
2016-12-02T02:36:43.921Z,0
2016-12-02T02:37:43.639Z,0
2016-12-02T02:38:43.965Z,0
2016-12-02T02:39:44.298Z,0
2016-12-02T02:40:44.062Z,0
2016-12-02T02:41:44.355Z,0
2016-12-02T02:42:44.388Z,0
2016-12-02T02:43:44.117Z,0
2016-12-02T02:44:44.445Z,0
2016-12-02T02:45:44.458Z,0
2016-12-02T02:46:44.195Z,0
2016-12-02T02:47:44.515Z,0
2016-12-02T02:48:44.233Z,0
2016-12-02T02:49:44.268Z,0
2016-12-02T02:50:44.905Z,0
2016-12-02T02:51:44.930Z,0
2016-12-02T02:52:44.654Z,0
2016-12-02T02:53:44.377Z,0
2016-12-02T02:54:44.093Z,0
2016-12-02T02:55:44.728Z,0
2016-12-02T02:56:44.757Z,0
2016-12-02T02:57:44.788Z,0
2016-12-02T02:58:44.211Z,0
2016-12-02T02:59:44.543Z,0
2016-12-02T03:00:44.873Z,0
2016-12-02T03:01:44.588Z,0
2016-12-02T03:02:44.609Z,0
2016-12-02T03:03:44.641Z,0
2016-12-02T03:04:44.675Z,0
2016-12-02T03:05:44.395Z,0
2016-12-02T03:06:45.029Z,0
2016-12-02T03:07:44.744Z,0
2016-12-02T03:08:44.778Z,0
2016-12-02T03:09:45.109Z,0
2016-12-02T03:10:45.429Z,0
2016-12-02T03:11:44.856Z,0
2016-12-02T03:12:45.197Z,0
2016-12-02T03:13:45.208Z,0
2016-12-02T03:14:45.540Z,0
2016-12-02T03:15:45.557Z,0
2016-12-02T03:16:44.979Z,0
2016-12-02T03:17:45.019Z,0
2016-12-02T03:18:44.747Z,0
2016-12-02T03:19:45.380Z,0
2016-12-02T03:20:45.095Z,0
2016-12-02T03:21:45.424Z,0
2016-12-02T03:22:45.154Z,0
2016-12-02T03:23:45.171Z,0
2016-12-02T03:24:45.511Z,0
2016-12-02T03:25:45.224Z,0
2016-12-02T03:26:45.255Z,0
2016-12-02T03:27:45.594Z,0
2016-12-02T03:28:45.618Z,0
2016-12-02T03:29:45.318Z,0
2016-12-02T03:30:45.064Z,0
2016-12-02T03:31:45.691Z,0
2016-12-02T03:32:45.417Z,0
2016-12-02T03:33:45.441Z,0
2016-12-02T03:34:45.815Z,0
2016-12-02T03:35:45.491Z,0
2016-12-02T03:36:45.827Z,0
2016-12-02T03:37:45.540Z,0
2016-12-02T03:38:45.589Z,0
2016-12-02T03:39:45.917Z,0
2016-12-02T03:40:46.247Z,0
2016-12-02T03:41:45.659Z,0
2016-12-02T03:42:45.984Z,0
2016-12-02T03:43:45.705Z,0
2016-12-02T03:44:45.749Z,0
2016-12-02T03:45:46.366Z,0
2016-12-02T03:46:46.098Z,0
2016-12-02T03:47:46.119Z,0
2016-12-02T03:48:45.847Z,0
2016-12-02T03:49:46.164Z,0
2016-12-02T03:50:45.597Z,0
2016-12-02T03:51:46.222Z,0
2016-12-02T03:52:46.562Z,0
2016-12-02T03:53:45.975Z,0
2016-12-02T03:54:46.606Z,0
2016-12-02T03:55:46.336Z,0
2016-12-02T03:56:45.757Z,0
2016-12-02T03:57:46.074Z,0
2016-12-02T03:58:46.415Z,0
2016-12-02T03:59:46.739Z,0
2016-12-02T04:00:45.868Z,0
2016-12-02T04:01:46.797Z,0
2016-12-02T04:02:45.905Z,0
2016-12-02T04:03:46.540Z,0
2016-12-02T04:04:46.576Z,0
2016-12-02T04:05:46.291Z,0
2016-12-02T04:06:46.316Z,0
2016-12-02T04:07:46.658Z,0
2016-12-02T04:08:46.669Z,0
2016-12-02T04:09:46.402Z,0
2016-12-02T04:10:46.428Z,0
2016-12-02T04:11:46.464Z,0
2016-12-02T04:12:47.087Z,0
2016-12-02T04:13:47.110Z,0
2016-12-02T04:14:46.881Z,0
2016-12-02T04:15:46.865Z,0
2016-12-02T04:16:46.891Z,0
2016-12-02T04:17:46.615Z,0
2016-12-02T04:18:46.936Z,0
2016-12-02T04:19:46.961Z,0
2016-12-02T04:20:46.697Z,0
2016-12-02T04:21:46.722Z,0
2016-12-02T04:22:46.755Z,0
2016-12-02T04:23:47.084Z,0
2016-12-02T04:24:46.796Z,0
2016-12-02T04:25:47.448Z,0
2016-12-02T04:26:46.554Z,0
2016-12-02T04:27:46.886Z,0
2016-12-02T04:28:47.219Z,0
2016-12-02T04:29:46.956Z,0
2016-12-02T04:30:46.964Z,0
2016-12-02T04:31:47.312Z,0
2016-12-02T04:32:46.711Z,0
2016-12-02T04:33:47.346Z,0
2016-12-02T04:34:47.056Z,0
2016-12-02T04:35:47.403Z,0
2016-12-02T04:36:47.724Z,0
2016-12-02T04:37:47.741Z,0
2016-12-02T04:38:47.485Z,0
2016-12-02T04:39:47.507Z,0
2016-12-02T04:40:46.923Z,0
2016-12-02T04:41:47.867Z,0
2016-12-02T04:42:47.293Z,0
2016-12-02T04:43:47.304Z,0
2016-12-02T04:44:47.325Z,0
2016-12-02T04:45:47.982Z,0
2016-12-02T04:46:47.691Z,0
2016-12-02T04:47:47.420Z,0
2016-12-02T04:48:47.438Z,0
2016-12-02T04:49:47.785Z,0
2016-12-02T04:50:47.801Z,0
2016-12-02T04:51:47.516Z,0
2016-12-02T04:52:47.240Z,0
2016-12-02T04:53:47.573Z,0
2016-12-02T04:54:48.216Z,0
2016-12-02T04:55:48.239Z,0
2016-12-02T04:56:47.654Z,0
2016-12-02T04:57:47.690Z,0
2016-12-02T04:58:48.003Z,0
2016-12-02T04:59:47.732Z,0
2016-12-02T05:00:48.372Z,0
2016-12-02T05:01:48.085Z,0
2016-12-02T05:02:47.810Z,0
2016-12-02T05:03:47.834Z,0
2016-12-02T05:04:47.563Z,0
2016-12-02T05:05:47.580Z,0
2016-12-02T05:06:48.221Z,0
2016-12-02T05:07:48.260Z,0
2016-12-02T05:08:48.588Z,0
2016-12-02T05:09:48.311Z,0
2016-12-02T05:10:48.335Z,0
2016-12-02T05:11:48.047Z,0
2016-12-02T05:12:48.077Z,0
2016-12-02T05:13:48.105Z,0
2016-12-02T05:14:48.131Z,0
2016-12-02T05:15:48.167Z,0
2016-12-02T05:16:48.483Z,0
2016-12-02T05:17:48.520Z,0
2016-12-02T05:18:48.240Z,0
2016-12-02T05:19:47.965Z,0
2016-12-02T05:20:48.294Z,0
2016-12-02T05:21:48.618Z,0
2016-12-02T05:22:48.651Z,0
2016-12-02T05:23:48.371Z,0
2016-12-02T05:24:49.005Z,0
2016-12-02T05:25:48.121Z,0
2016-12-02T05:26:48.766Z,0
2016-12-02T05:27:48.517Z,0
2016-12-02T05:28:49.108Z,0
2016-12-02T05:29:48.524Z,0
2016-12-02T05:30:48.864Z,0
2016-12-02T05:31:48.896Z,0
2016-12-02T05:32:48.609Z,0
2016-12-02T05:33:48.334Z,0
2016-12-02T05:34:48.668Z,0
2016-12-02T05:35:48.996Z,0
2016-12-02T05:36:49.027Z,0
2016-12-02T05:37:49.045Z,0
2016-12-02T05:38:48.766Z,0
2016-12-02T05:39:48.816Z,0
2016-12-02T05:40:48.827Z,0
2016-12-02T05:41:49.152Z,0
2016-12-02T05:42:49.177Z,0
2016-12-02T05:43:49.209Z,0
2016-12-02T05:44:48.625Z,0
2016-12-02T05:45:49.267Z,0
2016-12-02T05:46:48.995Z,0
2016-12-02T05:47:49.005Z,0
2016-12-02T05:48:49.645Z,0
2016-12-02T05:49:49.062Z,0
2016-12-02T05:50:49.726Z,0
2016-12-02T05:51:49.719Z,0
2016-12-02T05:52:49.440Z,0
2016-12-02T05:53:49.168Z,0
2016-12-02T05:54:49.199Z,0
2016-12-02T05:55:49.233Z,0
2016-12-02T05:56:49.858Z,0
2016-12-02T05:57:49.284Z,0
2016-12-02T05:58:49.599Z,0
2016-12-02T05:59:49.336Z,0
2016-12-02T06:00:49.357Z,0
2016-12-02T06:01:49.385Z,0
2016-12-02T06:02:49.414Z,0
2016-12-02T06:03:49.740Z,0
2016-12-02T06:04:49.759Z,0
2016-12-02T06:05:49.787Z,0
2016-12-02T06:06:49.212Z,0
2016-12-02T06:07:49.245Z,0
2016-12-02T06:08:49.881Z,0
2016-12-02T06:09:49.894Z,0
2016-12-02T06:10:49.923Z,0
2016-12-02T06:11:50.268Z,0
2016-12-02T06:12:49.984Z,0
2016-12-02T06:13:50.000Z,0
2016-12-02T06:14:49.737Z,0
2016-12-02T06:15:50.348Z,0
2016-12-02T06:16:49.787Z,0
2016-12-02T06:17:49.819Z,0
2016-12-02T06:18:50.148Z,0
2016-12-02T06:19:49.857Z,0
2016-12-02T06:20:49.886Z,0
2016-12-02T06:21:50.216Z,0
2016-12-02T06:22:49.935Z,0
2016-12-02T06:23:50.275Z,0
2016-12-02T06:24:49.696Z,0
2016-12-02T06:25:50.329Z,0
2016-12-02T06:26:50.062Z,0
2016-12-02T06:27:50.378Z,0
2016-12-02T06:28:49.796Z,0
2016-12-02T06:29:49.822Z,0
2016-12-02T06:30:50.761Z,0
2016-12-02T06:31:50.481Z,0
2016-12-02T06:32:50.219Z,0
2016-12-02T06:33:50.547Z,0
2016-12-02T06:34:50.576Z,0
2016-12-02T06:35:50.577Z,0
2016-12-02T06:36:50.329Z,0
2016-12-02T06:37:50.340Z,0
2016-12-02T06:38:50.081Z,0
2016-12-02T06:39:50.092Z,0
2016-12-02T06:40:50.725Z,0
2016-12-02T06:41:50.762Z,0
2016-12-02T06:42:50.782Z,0
2016-12-02T06:43:50.514Z,0
2016-12-02T06:44:50.534Z,0
2016-12-02T06:45:50.560Z,4
2016-12-02T06:46:50.276Z,4
2016-12-02T06:47:50.613Z,4
2016-12-02T06:48:50.954Z,4
2016-12-02T06:49:50.369Z,4
2016-12-02T06:50:50.683Z,4
2016-12-02T06:51:51.032Z,8
2016-12-02T06:52:50.761Z,8
2016-12-02T06:53:50.463Z,8
2016-12-02T06:54:50.809Z,12
2016-12-02T06:55:51.127Z,12
2016-12-02T06:56:51.162Z,16
2016-12-02T06:57:50.896Z,16
2016-12-02T06:58:50.609Z,20
2016-12-02T06:59:50.971Z,20
2016-12-02T07:00:50.960Z,24
2016-12-02T07:01:51.291Z,24
2016-12-02T07:02:51.013Z,32
2016-12-02T07:03:51.653Z,36
2016-12-02T07:04:51.088Z,36
2016-12-02T07:05:51.726Z,36
2016-12-02T07:06:50.814Z,40
2016-12-02T07:07:50.878Z,44
2016-12-02T07:08:50.872Z,44
2016-12-02T07:09:51.517Z,48
2016-12-02T07:10:51.240Z,56
2016-12-02T07:11:50.950Z,60
2016-12-02T07:12:51.878Z,64
2016-12-02T07:13:51.316Z,64
2016-12-02T07:14:51.340Z,64
2016-12-02T07:15:51.368Z,72
2016-12-02T07:16:51.396Z,80
2016-12-02T07:17:52.028Z,80
2016-12-02T07:18:51.755Z,80
2016-12-02T07:19:51.469Z,72
2016-12-02T07:20:51.190Z,76
2016-12-02T07:21:51.233Z,84
2016-12-02T07:22:51.555Z,84
2016-12-02T07:23:51.587Z,88
2016-12-02T07:24:51.920Z,92
2016-12-02T07:25:51.341Z,100
2016-12-02T07:26:52.273Z,112
2016-12-02T07:27:51.678Z,112
2016-12-02T07:28:51.415Z,116
2016-12-02T07:29:52.041Z,112
2016-12-02T07:30:52.076Z,112
2016-12-02T07:31:52.107Z,120
2016-12-02T07:32:52.138Z,120
2016-12-02T07:33:52.159Z,124
2016-12-02T07:34:51.875Z,116
2016-12-02T07:35:51.908Z,116
2016-12-02T07:36:52.249Z,120
2016-12-02T07:37:51.962Z,120
2016-12-02T07:38:52.290Z,124
2016-12-02T07:39:52.015Z,132
2016-12-02T07:40:52.054Z,144
2016-12-02T07:41:52.685Z,160
2016-12-02T07:42:52.121Z,168
2016-12-02T07:43:52.118Z,172
2016-12-02T07:44:52.471Z,172
2016-12-02T07:45:52.496Z,184
2016-12-02T07:46:52.208Z,192
2016-12-02T07:47:52.531Z,204
2016-12-02T07:48:52.290Z,216
2016-12-02T07:49:51.986Z,236
2016-12-02T07:50:52.011Z,236
2016-12-02T07:51:52.039Z,228
2016-12-02T07:52:52.059Z,232
2016-12-02T07:53:52.709Z,260
2016-12-02T07:54:52.425Z,292
2016-12-02T07:55:52.438Z,308
2016-12-02T07:56:52.471Z,304
2016-12-02T07:57:52.499Z,336
2016-12-02T07:58:52.527Z,368
2016-12-02T07:59:52.555Z,384
2016-12-02T08:00:52.901Z,364
2016-12-02T08:01:52.914Z,368
2016-12-02T08:02:52.641Z,328
2016-12-02T08:03:52.662Z,328
2016-12-02T08:04:53.024Z,356
2016-12-02T08:05:52.714Z,384
2016-12-02T08:06:53.348Z,408
2016-12-02T08:07:53.067Z,420
2016-12-02T08:08:52.806Z,396
2016-12-02T08:09:52.846Z,368
2016-12-02T08:10:53.154Z,388
2016-12-02T08:11:52.893Z,400
2016-12-02T08:12:52.901Z,392
2016-12-02T08:13:52.921Z,372
2016-12-02T08:14:53.254Z,400
2016-12-02T08:15:53.286Z,436
2016-12-02T08:16:52.999Z,428
2016-12-02T08:17:53.335Z,416
2016-12-02T08:18:53.363Z,428
2016-12-02T08:19:53.416Z,432
2016-12-02T08:20:53.429Z,412
2016-12-02T08:21:53.454Z,432
2016-12-02T08:22:53.464Z,456
2016-12-02T08:23:52.888Z,508
2016-12-02T08:24:53.527Z,536
2016-12-02T08:25:53.248Z,524
2016-12-02T08:26:53.881Z,524
2016-12-02T08:27:53.353Z,528
2016-12-02T08:28:53.330Z,508
2016-12-02T08:29:53.977Z,448
2016-12-02T08:30:54.011Z,440
2016-12-02T08:31:53.712Z,456
2016-12-02T08:32:53.441Z,440
2016-12-02T08:33:53.477Z,428
2016-12-02T08:34:54.106Z,428
2016-12-02T08:35:53.530Z,448
2016-12-02T08:36:53.884Z,464
2016-12-02T08:37:53.567Z,472
2016-12-02T08:38:53.604Z,464
2016-12-02T08:39:53.324Z,476
2016-12-02T08:40:53.946Z,524
2016-12-02T08:41:53.375Z,548
2016-12-02T08:42:53.415Z,580
2016-12-02T08:43:53.735Z,608
2016-12-02T08:44:53.465Z,608
2016-12-02T08:45:53.816Z,632
2016-12-02T08:46:53.813Z,624
2016-12-02T08:47:53.850Z,564
2016-12-02T08:48:53.869Z,512
2016-12-02T08:49:53.904Z,488
2016-12-02T08:50:54.537Z,496
2016-12-02T08:51:53.950Z,500
2016-12-02T08:52:53.665Z,524
2016-12-02T08:53:54.303Z,604
2016-12-02T08:54:54.043Z,680
2016-12-02T08:55:54.364Z,700
2016-12-02T08:56:54.095Z,672
2016-12-02T08:57:54.118Z,660
2016-12-02T08:58:53.844Z,680
2016-12-02T08:59:54.458Z,712
2016-12-02T09:00:54.501Z,732
2016-12-02T09:01:53.940Z,748
2016-12-02T09:02:53.937Z,776
2016-12-02T09:03:54.281Z,836
2016-12-02T09:04:54.610Z,880
2016-12-02T09:05:54.018Z,860
2016-12-02T09:06:54.374Z,832
2016-12-02T09:07:54.384Z,840
2016-12-02T09:08:54.149Z,860
2016-12-02T09:09:55.047Z,888
2016-12-02T09:10:54.782Z,896
2016-12-02T09:11:54.802Z,912
2016-12-02T09:12:54.519Z,872
2016-12-02T09:13:54.553Z,824
2016-12-02T09:14:54.884Z,812
2016-12-02T09:15:54.294Z,776
2016-12-02T09:16:54.626Z,716
2016-12-02T09:17:54.954Z,660
2016-12-02T09:18:54.679Z,652
2016-12-02T09:19:54.694Z,688
2016-12-02T09:20:54.732Z,736
2016-12-02T09:21:55.370Z,768
2016-12-02T09:22:54.474Z,764
2016-12-02T09:23:54.819Z,768
2016-12-02T09:24:54.862Z,820
2016-12-02T09:25:55.167Z,912
2016-12-02T09:26:55.188Z,976
2016-12-02T09:27:54.929Z,964
2016-12-02T09:28:54.642Z,956
2016-12-02T09:29:54.683Z,960
2016-12-02T09:30:55.615Z,1012
2016-12-02T09:31:55.024Z,1088
2016-12-02T09:32:55.356Z,1096
2016-12-02T09:33:55.069Z,1036
2016-12-02T09:34:55.407Z,1012
2016-12-02T09:35:55.751Z,1020
2016-12-02T09:36:55.463Z,1068
2016-12-02T09:37:55.184Z,1124
2016-12-02T09:38:55.517Z,1160
2016-12-02T09:39:55.246Z,1236
2016-12-02T09:40:55.270Z,1328
2016-12-02T09:41:55.307Z,1420
2016-12-02T09:42:55.628Z,1456
2016-12-02T09:43:55.962Z,1404
2016-12-02T09:44:55.069Z,1308
2016-12-02T09:45:55.706Z,1280
2016-12-02T09:46:55.418Z,1284
2016-12-02T09:47:55.467Z,1244
2016-12-02T09:48:55.480Z,1160
2016-12-02T09:49:55.514Z,1120
2016-12-02T09:50:55.542Z,1124
2016-12-02T09:51:55.573Z,1100
2016-12-02T09:52:55.587Z,1108
2016-12-02T09:53:56.220Z,1160
2016-12-02T09:54:55.968Z,1168
2016-12-02T09:55:55.375Z,1100
2016-12-02T09:56:56.002Z,1084
2016-12-02T09:57:56.031Z,1200
2016-12-02T09:58:55.444Z,1416
2016-12-02T09:59:55.476Z,1720
2016-12-02T10:00:56.113Z,1960
2016-12-02T10:01:56.142Z,2132
2016-12-02T10:02:55.859Z,2332
2016-12-02T10:03:56.191Z,2372
2016-12-02T10:04:55.906Z,2152
2016-12-02T10:05:55.945Z,2052
2016-12-02T10:06:55.969Z,2044
2016-12-02T10:07:55.986Z,1776
2016-12-02T10:08:56.015Z,1376
2016-12-02T10:09:56.353Z,1116
2016-12-02T10:10:56.677Z,1124
2016-12-02T10:11:56.103Z,984
2016-12-02T10:12:56.430Z,872
2016-12-02T10:13:56.458Z,888
2016-12-02T10:14:56.494Z,976
2016-12-02T10:15:56.535Z,1024
2016-12-02T10:16:56.229Z,992
2016-12-02T10:17:56.274Z,984
2016-12-02T10:18:56.591Z,1004
2016-12-02T10:19:56.620Z,1048
2016-12-02T10:20:56.345Z,1048
2016-12-02T10:21:56.364Z,1032
2016-12-02T10:22:56.391Z,956
2016-12-02T10:23:57.034Z,900
2016-12-02T10:24:57.046Z,1008
2016-12-02T10:25:56.784Z,1356
2016-12-02T10:26:56.200Z,1996
2016-12-02T10:27:56.226Z,2208
2016-12-02T10:28:56.852Z,1684
2016-12-02T10:29:56.883Z,1260
2016-12-02T10:30:56.612Z,1116
2016-12-02T10:31:56.947Z,1108
2016-12-02T10:32:57.285Z,1104
2016-12-02T10:33:56.690Z,1112
2016-12-02T10:34:56.718Z,1032
2016-12-02T10:35:57.038Z,936
2016-12-02T10:36:56.483Z,852
2016-12-02T10:37:56.809Z,760
2016-12-02T10:38:56.833Z,780
2016-12-02T10:39:56.568Z,840
2016-12-02T10:40:57.190Z,856
2016-12-02T10:41:56.944Z,932
2016-12-02T10:42:56.632Z,1052
2016-12-02T10:43:56.957Z,1204
2016-12-02T10:44:57.294Z,1248
2016-12-02T10:45:56.716Z,1192
2016-12-02T10:46:57.039Z,1144
2016-12-02T10:47:57.384Z,1044
2016-12-02T10:48:56.789Z,996
2016-12-02T10:49:57.425Z,1036
2016-12-02T10:50:57.257Z,1212
2016-12-02T10:51:57.185Z,1392
2016-12-02T10:52:57.211Z,1512
2016-12-02T10:53:56.920Z,1488
2016-12-02T10:54:57.544Z,1376
2016-12-02T10:55:57.285Z,1196
2016-12-02T10:56:57.015Z,1096
2016-12-02T10:57:57.330Z,1072
2016-12-02T10:58:57.049Z,1044
2016-12-02T10:59:57.076Z,980
2016-12-02T11:00:57.723Z,900
2016-12-02T11:01:57.750Z,840
2016-12-02T11:02:58.071Z,896
2016-12-02T11:03:57.795Z,1076
2016-12-02T11:04:58.147Z,1140
2016-12-02T11:05:57.548Z,1064
2016-12-02T11:06:57.568Z,1080
2016-12-02T11:07:58.220Z,1184
2016-12-02T11:08:57.634Z,1176
2016-12-02T11:09:57.657Z,1304
2016-12-02T11:10:58.296Z,1416
2016-12-02T11:11:57.413Z,1352
2016-12-02T11:12:58.042Z,1300
2016-12-02T11:13:57.790Z,1276
2016-12-02T11:14:57.791Z,1320
2016-12-02T11:15:57.831Z,1392
2016-12-02T11:16:57.845Z,1480
2016-12-02T11:17:58.181Z,1536
2016-12-02T11:18:58.201Z,1584
2016-12-02T11:19:57.927Z,1600
2016-12-02T11:20:57.643Z,1472
2016-12-02T11:21:58.596Z,1384
2016-12-02T11:22:58.408Z,1352
2016-12-02T11:23:57.731Z,1328
2016-12-02T11:24:57.758Z,1360
2016-12-02T11:25:58.420Z,1412
2016-12-02T11:26:58.120Z,1476
2016-12-02T11:27:58.440Z,1488
2016-12-02T11:28:58.162Z,1572
2016-12-02T11:29:58.193Z,1792
2016-12-02T11:30:58.518Z,1764
2016-12-02T11:31:58.579Z,1576
2016-12-02T11:32:58.583Z,1704
2016-12-02T11:33:58.592Z,1916
2016-12-02T11:34:58.933Z,1796
2016-12-02T11:35:58.962Z,1772
2016-12-02T11:36:58.682Z,1732
2016-12-02T11:37:58.411Z,1780
2016-12-02T11:38:58.766Z,1804
2016-12-02T11:39:58.776Z,1780
2016-12-02T11:40:58.174Z,1624
2016-12-02T11:41:59.114Z,1732
2016-12-02T11:42:58.843Z,1748
2016-12-02T11:43:58.572Z,1772
2016-12-02T11:44:58.904Z,1680
2016-12-02T11:45:59.245Z,1720
2016-12-02T11:46:58.662Z,1656
2016-12-02T11:47:58.966Z,1684
2016-12-02T11:48:59.000Z,1664
2016-12-02T11:49:59.040Z,1572
2016-12-02T11:50:59.072Z,1512
2016-12-02T11:51:58.790Z,1580
2016-12-02T11:52:58.822Z,1552
2016-12-02T11:53:59.438Z,1752
2016-12-02T11:54:59.464Z,2288
2016-12-02T11:55:59.505Z,2596
2016-12-02T11:56:58.925Z,2772
2016-12-02T11:57:59.242Z,3312
2016-12-02T11:58:59.001Z,3480
2016-12-02T11:59:59.603Z,3268
2016-12-02T12:00:59.632Z,3184
2016-12-02T12:01:59.353Z,3240
2016-12-02T12:02:59.389Z,3056
2016-12-02T12:03:59.418Z,2552
2016-12-02T12:04:59.438Z,2140
2016-12-02T12:05:58.859Z,2112
2016-12-02T12:06:59.483Z,2792
2016-12-02T12:07:59.516Z,3584
2016-12-02T12:08:59.257Z,3664
2016-12-02T12:09:59.274Z,2648
2016-12-02T12:10:59.303Z,2536
2016-12-02T12:11:59.636Z,2464
2016-12-02T12:12:59.656Z,3312
2016-12-02T12:13:59.361Z,4164
2016-12-02T12:14:59.709Z,4308
2016-12-02T12:15:59.442Z,3436
2016-12-02T12:16:59.771Z,3084
2016-12-02T12:17:59.791Z,3124
2016-12-02T12:18:59.516Z,3236
2016-12-02T12:19:59.833Z,3388
2016-12-02T12:21:00.182Z,3332
2016-12-02T12:22:00.215Z,3156
2016-12-02T12:22:59.324Z,3384
2016-12-02T12:23:59.952Z,3648
2016-12-02T12:24:59.984Z,3796
2016-12-02T12:26:00.301Z,3776
2016-12-02T12:27:00.338Z,3704
2016-12-02T12:28:00.371Z,3888
2016-12-02T12:29:00.092Z,4288
2016-12-02T12:30:00.120Z,4100
2016-12-02T12:31:00.158Z,3888
2016-12-02T12:32:00.470Z,3384
2016-12-02T12:33:00.190Z,3092
2016-12-02T12:33:59.918Z,3296
2016-12-02T12:34:59.957Z,3484
2016-12-02T12:35:59.976Z,2992
2016-12-02T12:36:59.997Z,2620
2016-12-02T12:38:00.635Z,2656
2016-12-02T12:39:00.663Z,2660
2016-12-02T12:40:00.377Z,2516
2016-12-02T12:41:00.404Z,2316
2016-12-02T12:42:00.428Z,2264
2016-12-02T12:43:00.161Z,2160
2016-12-02T12:44:00.484Z,1988
2016-12-02T12:45:00.223Z,2000
2016-12-02T12:46:00.245Z,2120
2016-12-02T12:47:00.587Z,2704
2016-12-02T12:48:00.925Z,4392
2016-12-02T12:49:00.639Z,5684
2016-12-02T12:50:00.655Z,5780
2016-12-02T12:51:00.695Z,5160
2016-12-02T12:52:00.096Z,4476
2016-12-02T12:53:00.740Z,4276
2016-12-02T12:54:00.445Z,4284
2016-12-02T12:55:00.813Z,3992
2016-12-02T12:56:00.820Z,3820
2016-12-02T12:57:01.164Z,3656
2016-12-02T12:58:00.577Z,3644
2016-12-02T12:59:00.597Z,3492
2016-12-02T13:00:00.922Z,3424
2016-12-02T13:01:00.958Z,3208
2016-12-02T13:02:01.295Z,2956
2016-12-02T13:03:00.408Z,2952
2016-12-02T13:04:00.749Z,2464
2016-12-02T13:05:01.362Z,2864
2016-12-02T13:06:01.098Z,2780
2016-12-02T13:07:01.106Z,2616
2016-12-02T13:08:01.152Z,2704
2016-12-02T13:09:00.872Z,3280
2016-12-02T13:10:00.901Z,3100
2016-12-02T13:11:01.236Z,2532
2016-12-02T13:12:00.667Z,2172
2016-12-02T13:13:01.282Z,2068
2016-12-02T13:14:00.996Z,2344
2016-12-02T13:15:01.637Z,2096
2016-12-02T13:16:01.062Z,2076
2016-12-02T13:17:01.406Z,2168
2016-12-02T13:18:01.427Z,2048
2016-12-02T13:19:01.464Z,2176
2016-12-02T13:20:01.175Z,2684
2016-12-02T13:21:01.808Z,2964
2016-12-02T13:22:01.837Z,2844
2016-12-02T13:23:01.255Z,2744
2016-12-02T13:24:01.899Z,2504
2016-12-02T13:25:01.621Z,2604
2016-12-02T13:26:01.344Z,2436
2016-12-02T13:27:01.366Z,2196
2016-12-02T13:28:01.997Z,2252
2016-12-02T13:29:01.731Z,2008
2016-12-02T13:30:01.463Z,2160
2016-12-02T13:31:02.120Z,2536
2016-12-02T13:32:02.141Z,2212
2016-12-02T13:33:01.534Z,1800
2016-12-02T13:34:01.878Z,1764
2016-12-02T13:35:01.875Z,2072
2016-12-02T13:36:01.618Z,2232
2016-12-02T13:37:01.944Z,2676
2016-12-02T13:38:01.981Z,2752
2016-12-02T13:39:02.001Z,2956
2016-12-02T13:40:02.014Z,3108
2016-12-02T13:41:02.363Z,2576
2016-12-02T13:42:01.767Z,2480
2016-12-02T13:43:02.404Z,2288
2016-12-02T13:44:01.525Z,2304
2016-12-02T13:45:02.183Z,2228
2016-12-02T13:46:01.882Z,2688
2016-12-02T13:47:02.212Z,2452
2016-12-02T13:48:01.945Z,2212
2016-12-02T13:49:02.264Z,2172
2016-12-02T13:50:02.297Z,2036
2016-12-02T13:51:02.318Z,2084
2016-12-02T13:52:02.363Z,2076
2016-12-02T13:53:02.084Z,2176
2016-12-02T13:54:02.409Z,2132
2016-12-02T13:55:01.833Z,1972
2016-12-02T13:56:02.174Z,1848
2016-12-02T13:57:02.490Z,1644
2016-12-02T13:58:02.516Z,1816
2016-12-02T13:59:02.852Z,1792
2016-12-02T14:00:02.882Z,1360
2016-12-02T14:01:02.000Z,1388
2016-12-02T14:02:02.634Z,1420
2016-12-02T14:03:02.366Z,1224
2016-12-02T14:04:02.684Z,1516
2016-12-02T14:05:02.710Z,1384
2016-12-02T14:06:02.736Z,1092
2016-12-02T14:07:02.149Z,944